Time;durP1;ratioP1;P1;durP2;ratioP2;P2;SDS_P1;SDS_P2;PMS_P1;PMS_P2;Temp;Humidity;BMP_temperature;BMP_pressure;BME280_temperature;BME280_humidity;BME280_pressure;Samples;Min_cycle;Max_cycle;Signal;HPM_P1;HPM_P2
2023/12/30 00:01:04;;;;;;;7.07;1.40;;;6.00;99.90;;;;;;5045614;28;20033;-69
2023/12/30 00:03:30;;;;;;;10.90;1.50;;;6.00;99.90;;;;;;5033216;28;20033;-66
2023/12/30 00:05:56;;;;;;;10.70;1.50;;;6.10;99.90;;;;;;5031860;28;20044;-65
2023/12/30 00:08:21;;;;;;;9.73;1.48;;;6.10;99.90;;;;;;5032002;28;20124;-67
2023/12/30 00:10:47;;;;;;;6.97;1.83;;;6.00;99.90;;;;;;5032778;28;20140;-65
2023/12/30 00:13:12;;;;;;;6.30;1.50;;;6.00;99.90;;;;;;5040076;28;20513;-65
2023/12/30 00:15:38;;;;;;;8.43;1.60;;;6.00;99.90;;;;;;5044424;28;20049;-67
2023/12/30 00:18:04;;;;;;;11.07;2.05;;;5.90;99.90;;;;;;5037321;28;20469;-67
2023/12/30 00:20:29;;;;;;;9.70;1.95;;;5.80;99.90;;;;;;5018362;28;20178;-66
2023/12/30 00:22:55;;;;;;;7.75;1.55;;;5.80;99.90;;;;;;5041821;28;20491;-66
2023/12/30 00:25:22;;;;;;;6.07;1.50;;;5.80;99.90;;;;;;5038744;28;20045;-67
2023/12/30 00:27:49;;;;;;;7.93;1.55;;;5.80;99.90;;;;;;5049397;28;20453;-65
2023/12/30 00:30:15;;;;;;;12.68;2.05;;;5.80;99.90;;;;;;5040669;28;20390;-66
2023/12/30 00:32:40;;;;;;;7.00;1.40;;;5.70;99.90;;;;;;5045569;28;20040;-66
2023/12/30 00:35:09;;;;;;;6.75;1.40;;;5.70;99.90;;;;;;5019883;28;20094;-66
2023/12/30 00:37:35;;;;;;;8.23;1.55;;;5.70;59.10;;;;;;5051169;28;20041;-66
2023/12/30 00:40:00;;;;;;;3.78;1.38;;;5.60;68.70;;;;;;5027159;28;20033;-65
2023/12/30 00:42:26;;;;;;;12.23;1.85;;;5.60;14.90;;;;;;5031658;28;20491;-66
2023/12/30 00:44:52;;;;;;;7.82;1.38;;;5.50;8.70;;;;;;5048748;28;20033;-66
2023/12/30 00:47:17;;;;;;;10.10;1.30;;;5.50;1.00;;;;;;5050768;28;20431;-65
2023/12/30 00:49:44;;;;;;;9.57;2.33;;;5.50;1.00;;;;;;5026607;28;20041;-66
2023/12/30 00:52:10;;;;;;;3.40;1.23;;;5.60;1.00;;;;;;5046278;28;20080;-66
2023/12/30 00:54:36;;;;;;;9.90;1.90;;;5.50;1.00;;;;;;5041880;28;20030;-66
2023/12/30 00:57:02;;;;;;;7.63;1.50;;;5.50;99.90;;;;;;5024170;28;20037;-66
2023/12/30 00:59:28;;;;;;;7.47;1.15;;;5.50;99.90;;;;;;5032407;28;20038;-66
2023/12/30 01:01:53;;;;;;;10.52;1.85;;;5.50;99.90;;;;;;5031017;28;20470;-66
2023/12/30 01:04:19;;;;;;;6.20;1.50;;;5.60;99.90;;;;;;5038416;28;20029;-66
2023/12/30 01:06:45;;;;;;;5.75;1.45;;;5.60;99.90;;;;;;5044756;28;20052;-66
2023/12/30 01:09:10;;;;;;;6.45;1.83;;;5.60;99.90;;;;;;5028920;28;20124;-67
2023/12/30 01:11:36;;;;;;;8.68;1.20;;;5.60;99.90;;;;;;5035590;28;20403;-67
2023/12/30 01:14:02;;;;;;;10.30;1.38;;;5.60;99.90;;;;;;5046839;28;20033;-65
2023/12/30 01:16:27;;;;;;;10.48;1.83;;;5.60;99.90;;;;;;5033432;28;20044;-66
2023/12/30 01:18:53;;;;;;;14.55;1.45;;;5.60;99.90;;;;;;5044127;28;20068;-66
2023/12/30 01:21:19;;;;;;;7.93;1.50;;;5.60;99.90;;;;;;5045484;28;20339;-66
2023/12/30 01:23:44;;;;;;;8.38;1.15;;;5.70;1.00;;;;;;5043475;28;20048;-64
2023/12/30 01:26:10;;;;;;;9.10;1.30;;;5.60;41.30;;;;;;5019609;28;20484;-66
2023/12/30 01:28:36;;;;;;;10.63;1.27;;;5.60;1.00;;;;;;5023561;28;20044;-65
2023/12/30 01:31:02;;;;;;;7.07;1.50;;;5.70;1.00;;;;;;5016727;28;20057;-67
2023/12/30 01:33:28;;;;;;;5.15;1.15;;;5.60;1.00;;;;;;5043536;28;20076;-67
2023/12/30 01:35:54;;;;;;;7.95;1.58;;;5.60;1.00;;;;;;5037385;28;20036;-66
2023/12/30 01:38:20;;;;;;;8.20;1.50;;;5.50;1.00;;;;;;5018057;28;20041;-65
2023/12/30 01:40:46;;;;;;;2.55;1.00;;;5.50;1.00;;;;;;5037698;28;20053;-66
2023/12/30 01:43:28;;;;;;;4.82;1.08;;;5.50;1.00;;;;;;5029669;28;20048;-67
2023/12/30 01:45:58;;;;;;;7.47;1.73;;;5.40;1.00;;;;;;5031279;28;20033;-65
2023/12/30 01:48:24;;;;;;;7.10;1.23;;;5.40;1.00;;;;;;5039157;28;20041;-66
2023/12/30 01:50:52;;;;;;;7.20;1.50;;;5.40;1.00;;;;;;5030155;28;20050;-66
2023/12/30 01:53:18;;;;;;;8.65;1.20;;;5.40;1.00;;;;;;5018587;28;20087;-67
2023/12/30 01:55:49;;;;;;;6.75;1.13;;;5.40;1.00;;;;;;5029048;28;20519;-65
2023/12/30 01:58:15;;;;;;;6.43;1.17;;;5.50;99.90;;;;;;5028711;28;20037;-66
2023/12/30 02:00:42;;;;;;;5.97;1.05;;;5.50;99.90;;;;;;5041437;28;20044;-66
2023/12/30 02:03:07;;;;;;;5.25;1.27;;;5.50;99.90;;;;;;5037753;28;20041;-66
2023/12/30 02:05:34;;;;;;;7.40;1.45;;;5.50;99.90;;;;;;5034802;28;20045;-66
2023/12/30 02:08:00;;;;;;;5.15;1.20;;;5.40;99.90;;;;;;5044282;28;20094;-66
2023/12/30 02:10:26;;;;;;;5.32;0.93;;;5.50;99.90;;;;;;5045685;28;20436;-66
2023/12/30 02:12:51;;;;;;;9.70;1.48;;;5.40;99.90;;;;;;5029444;28;20121;-68
2023/12/30 02:15:17;;;;;;;5.43;1.00;;;5.50;99.90;;;;;;5030046;28;20052;-65
2023/12/30 02:17:43;;;;;;;5.63;1.10;;;5.50;99.90;;;;;;5018868;28;20049;-65
2023/12/30 02:20:10;;;;;;;11.50;1.42;;;5.50;99.90;;;;;;5040093;28;20103;-66
2023/12/30 02:22:40;;;;;;;5.60;1.20;;;5.50;99.90;;;;;;5037326;28;20041;-66
2023/12/30 02:25:05;;;;;;;9.60;1.30;;;5.60;99.90;;;;;;5029409;28;20762;-65
2023/12/30 02:27:31;;;;;;;6.63;1.92;;;5.70;99.90;;;;;;5035777;28;20030;-66
2023/12/30 02:29:57;;;;;;;7.57;1.10;;;5.60;99.90;;;;;;5013635;28;20535;-66
2023/12/30 02:32:22;;;;;;;5.47;1.00;;;5.70;99.90;;;;;;5047730;28;20111;-66
2023/12/30 02:34:48;;;;;;;12.45;1.50;;;5.70;99.90;;;;;;5036668;28;20048;-66
2023/12/30 02:37:13;;;;;;;6.25;1.08;;;5.70;99.90;;;;;;5040702;28;20044;-67
2023/12/30 02:39:39;;;;;;;7.22;1.20;;;5.70;99.90;;;;;;5030837;28;20069;-65
2023/12/30 02:42:05;;;;;;;6.57;1.45;;;5.80;99.90;;;;;;5032632;28;20136;-67
2023/12/30 02:44:31;;;;;;;9.05;1.10;;;5.70;99.90;;;;;;5046869;28;20425;-67
2023/12/30 02:46:56;;;;;;;5.38;0.90;;;5.70;99.90;;;;;;5046181;28;20047;-66
2023/12/30 02:49:22;;;;;;;8.98;1.35;;;5.70;99.90;;;;;;5050799;28;20094;-67
2023/12/30 02:51:47;;;;;;;5.25;1.10;;;5.70;99.90;;;;;;5045610;28;20040;-67
2023/12/30 02:54:13;;;;;;;7.35;1.70;;;5.80;99.90;;;;;;5046746;28;22073;-67
2023/12/30 02:56:39;;;;;;;6.45;1.35;;;5.80;99.90;;;;;;5033692;28;20073;-64
2023/12/30 02:59:04;;;;;;;7.70;1.30;;;5.80;99.90;;;;;;5045287;28;20035;-68
2023/12/30 03:01:31;;;;;;;6.28;1.15;;;5.70;99.90;;;;;;5044316;28;20033;-67
2023/12/30 03:03:59;;;;;;;10.57;1.38;;;5.70;99.90;;;;;;5050146;28;20048;-66
2023/12/30 03:06:26;;;;;;;5.13;1.15;;;5.70;99.90;;;;;;5033558;28;20036;-67
2023/12/30 03:08:52;;;;;;;7.72;1.17;;;5.80;99.90;;;;;;5035023;28;20057;-65
2023/12/30 03:11:18;;;;;;;6.68;1.08;;;5.80;99.90;;;;;;5025455;28;20044;-66
2023/12/30 03:13:44;;;;;;;9.63;1.10;;;5.90;99.90;;;;;;5042383;28;20444;-66
2023/12/30 03:16:11;;;;;;;8.32;1.40;;;6.00;99.90;;;;;;5039568;28;20120;-66
2023/12/30 03:18:40;;;;;;;8.15;1.15;;;5.90;99.90;;;;;;5039424;28;20033;-66
2023/12/30 03:21:08;;;;;;;3.05;0.90;;;5.80;99.90;;;;;;5042270;28;20037;-66
2023/12/30 03:23:35;;;;;;;6.32;1.17;;;6.00;99.90;;;;;;5047004;28;20053;-65
2023/12/30 03:26:02;;;;;;;5.38;1.20;;;5.90;99.90;;;;;;5036204;28;20056;-67
2023/12/30 03:28:28;;;;;;;11.15;1.25;;;5.90;99.90;;;;;;5039495;28;20073;-66
2023/12/30 03:30:53;;;;;;;6.80;2.55;;;5.90;99.90;;;;;;5033119;28;20131;-66
2023/12/30 03:33:19;;;;;;;5.13;1.13;;;5.90;99.90;;;;;;5019517;28;20048;-66
2023/12/30 03:35:44;;;;;;;8.75;1.20;;;5.90;99.90;;;;;;5037526;28;20045;-66
2023/12/30 03:38:10;;;;;;;4.20;1.27;;;5.90;99.90;;;;;;5018331;28;20465;-65
2023/12/30 03:40:36;;;;;;;7.85;1.40;;;5.80;99.90;;;;;;5035019;28;20132;-65
2023/12/30 03:43:01;;;;;;;6.63;1.10;;;5.80;99.90;;;;;;5034221;28;20411;-66
2023/12/30 03:45:27;;;;;;;9.88;1.60;;;5.80;99.90;;;;;;5038261;28;20037;-67
2023/12/30 03:47:52;;;;;;;7.63;1.75;;;5.90;99.90;;;;;;5041717;28;20095;-66
2023/12/30 03:50:18;;;;;;;7.20;1.20;;;6.00;99.90;;;;;;5033809;28;20393;-66
2023/12/30 03:52:44;;;;;;;6.32;1.10;;;6.00;99.90;;;;;;5043270;28;20521;-66
2023/12/30 03:55:10;;;;;;;7.47;1.73;;;6.00;99.90;;;;;;5031431;28;20132;-66
2023/12/30 03:57:36;;;;;;;10.38;1.88;;;6.00;99.90;;;;;;5032649;28;20045;-67
2023/12/30 04:00:01;;;;;;;12.55;1.85;;;6.00;99.90;;;;;;5033364;28;20056;-66
2023/12/30 04:02:27;;;;;;;10.85;1.55;;;6.00;99.90;;;;;;5035833;28;20036;-66
2023/12/30 04:04:53;;;;;;;5.57;1.13;;;6.00;99.90;;;;;;5032778;28;20045;-66
2023/12/30 04:07:18;;;;;;;5.35;1.08;;;6.00;99.90;;;;;;5038910;28;20041;-65
2023/12/30 04:09:44;;;;;;;9.15;1.52;;;6.00;99.90;;;;;;5038457;28;20049;-67
2023/12/30 04:12:09;;;;;;;5.82;1.23;;;6.00;99.90;;;;;;5040884;28;20549;-66
2023/12/30 04:14:35;;;;;;;6.55;1.40;;;5.90;99.90;;;;;;5051605;28;20041;-66
2023/12/30 04:17:01;;;;;;;8.35;1.23;;;5.90;99.90;;;;;;5040430;28;20033;-66
2023/12/30 04:19:26;;;;;;;6.70;1.73;;;6.00;99.90;;;;;;5048712;28;20215;-67
2023/12/30 04:21:52;;;;;;;10.05;1.20;;;6.00;99.90;;;;;;5041266;28;20056;-68
2023/12/30 04:24:18;;;;;;;7.55;1.45;;;5.90;99.90;;;;;;5035167;28;20029;-66
2023/12/30 04:26:45;;;;;;;10.13;1.70;;;6.00;99.90;;;;;;5041087;28;20480;-68
2023/12/30 04:29:10;;;;;;;8.65;1.50;;;6.00;99.90;;;;;;5038734;28;20423;-66
2023/12/30 04:31:36;;;;;;;9.10;1.40;;;6.00;99.90;;;;;;5019605;28;20140;-66
2023/12/30 04:34:02;;;;;;;9.63;2.00;;;5.90;99.90;;;;;;5042735;28;20048;-67
2023/12/30 04:36:28;;;;;;;5.85;1.20;;;5.90;99.90;;;;;;5015383;28;20136;-67
2023/12/30 04:38:53;;;;;;;12.27;1.52;;;5.80;99.90;;;;;;5038940;28;20056;-67
2023/12/30 04:41:19;;;;;;;10.98;1.67;;;5.80;99.90;;;;;;5037031;28;20037;-68
2023/12/30 04:43:45;;;;;;;8.52;1.42;;;5.90;99.90;;;;;;5034662;28;20381;-65
2023/12/30 04:46:14;;;;;;;7.15;1.40;;;5.80;99.90;;;;;;5038518;28;20037;-68
2023/12/30 04:48:39;;;;;;;8.25;1.38;;;5.80;99.90;;;;;;5045945;28;20037;-67
2023/12/30 04:51:05;;;;;;;10.98;1.83;;;5.70;99.90;;;;;;5044674;28;20484;-67
2023/12/30 04:53:31;;;;;;;6.90;1.40;;;5.70;99.90;;;;;;5036975;28;20052;-67
2023/12/30 04:55:56;;;;;;;7.30;1.40;;;5.70;99.90;;;;;;5048627;28;20404;-65
2023/12/30 04:58:22;;;;;;;9.50;1.48;;;5.70;99.90;;;;;;5034525;28;20074;-66
2023/12/30 05:00:48;;;;;;;7.95;1.25;;;5.70;99.90;;;;;;5045794;28;20431;-66
2023/12/30 05:03:15;;;;;;;8.60;1.65;;;5.70;99.90;;;;;;5042211;28;20029;-66
2023/12/30 05:05:40;;;;;;;9.85;1.60;;;5.70;99.90;;;;;;5038929;28;20796;-67
2023/12/30 05:08:07;;;;;;;8.43;1.60;;;5.60;99.90;;;;;;5033270;28;20038;-67
2023/12/30 05:10:33;;;;;;;6.35;1.20;;;5.70;99.90;;;;;;5038812;28;20047;-67
2023/12/30 05:12:59;;;;;;;11.82;2.05;;;5.70;99.90;;;;;;5047355;28;20128;-66
2023/12/30 05:15:25;;;;;;;9.38;1.50;;;5.70;99.90;;;;;;5035246;28;20580;-68
2023/12/30 05:17:51;;;;;;;10.48;2.00;;;5.70;99.90;;;;;;5033027;28;20124;-67
2023/12/30 05:20:17;;;;;;;12.90;1.85;;;5.70;99.90;;;;;;5029362;28;20029;-67
2023/12/30 05:22:43;;;;;;;9.90;1.50;;;5.70;99.90;;;;;;5032404;28;20658;-68
2023/12/30 05:25:09;;;;;;;8.15;1.40;;;5.60;99.90;;;;;;5045153;28;20039;-66
2023/12/30 05:27:35;;;;;;;5.72;1.63;;;5.70;99.90;;;;;;5029123;28;20041;-68
2023/12/30 05:30:01;;;;;;;7.30;1.23;;;5.70;99.90;;;;;;5043467;28;20103;-66
2023/12/30 05:32:27;;;;;;;4.68;1.13;;;5.70;99.90;;;;;;5036434;28;20493;-67
2023/12/30 05:34:52;;;;;;;5.50;1.38;;;5.70;99.90;;;;;;5029965;28;20045;-66
2023/12/30 05:37:18;;;;;;;6.90;1.48;;;5.80;99.90;;;;;;5029903;28;20042;-67
2023/12/30 05:39:44;;;;;;;10.02;1.80;;;5.70;99.90;;;;;;5034148;28;20049;-66
2023/12/30 05:42:10;;;;;;;7.38;1.13;;;5.70;99.90;;;;;;5038689;28;20037;-65
2023/12/30 05:44:36;;;;;;;11.35;2.03;;;5.60;99.90;;;;;;5035400;28;20049;-67
2023/12/30 05:47:02;;;;;;;7.47;1.50;;;5.60;99.90;;;;;;5031671;28;20580;-65
2023/12/30 05:49:28;;;;;;;6.85;1.60;;;5.60;99.90;;;;;;5025615;28;20103;-67
2023/12/30 05:51:53;;;;;;;9.02;1.65;;;5.60;99.90;;;;;;5034250;28;20028;-67
2023/12/30 05:54:19;;;;;;;6.30;1.33;;;5.60;99.90;;;;;;5033170;28;20549;-66
2023/12/30 05:56:45;;;;;;;13.13;2.15;;;5.70;99.90;;;;;;5022883;28;20049;-67
2023/12/30 05:59:10;;;;;;;7.38;1.40;;;5.70;99.90;;;;;;5041423;28;20488;-69
2023/12/30 06:01:45;;;;;;;9.68;1.30;;;5.70;99.90;;;;;;5033060;28;20048;-66
2023/12/30 06:04:14;;;;;;;7.65;2.22;;;5.70;99.90;;;;;;5043068;28;20042;-66
2023/12/30 06:06:40;;;;;;;7.70;1.45;;;5.70;99.90;;;;;;5041392;28;20373;-70
2023/12/30 06:09:07;;;;;;;10.95;1.65;;;5.60;99.90;;;;;;5033967;28;20562;-67
2023/12/30 06:11:32;;;;;;;7.88;1.50;;;5.70;99.90;;;;;;5026415;28;20117;-66
2023/12/30 06:13:58;;;;;;;9.05;1.88;;;5.60;99.90;;;;;;5046557;28;20053;-66
2023/12/30 06:16:23;;;;;;;5.82;1.60;;;5.60;99.90;;;;;;5039966;28;20044;-67
2023/12/30 06:18:49;;;;;;;7.45;1.40;;;5.70;99.90;;;;;;5015948;28;20480;-67
2023/12/30 06:21:15;;;;;;;8.52;1.65;;;5.70;99.90;;;;;;5029690;28;20041;-68
2023/12/30 06:23:40;;;;;;;9.18;1.95;;;5.70;99.90;;;;;;5045735;28;20053;-67
2023/12/30 06:26:06;;;;;;;10.77;1.50;;;5.70;99.90;;;;;;5040784;28;20043;-66
2023/12/30 06:28:31;;;;;;;7.05;1.80;;;5.70;99.90;;;;;;5038360;28;20461;-68
2023/12/30 06:30:57;;;;;;;10.52;1.92;;;5.70;99.90;;;;;;5030430;28;20524;-68
2023/12/30 06:33:23;;;;;;;11.40;1.90;;;5.70;99.90;;;;;;5013089;28;20210;-67
2023/12/30 06:35:49;;;;;;;11.02;1.63;;;5.80;99.90;;;;;;5039805;28;20049;-68
2023/12/30 06:38:15;;;;;;;6.45;1.30;;;5.70;99.90;;;;;;5035070;28;20626;-67
2023/12/30 06:40:41;;;;;;;11.93;1.30;;;5.80;99.90;;;;;;5043217;28;20118;-68
2023/12/30 06:43:10;;;;;;;12.02;1.80;;;5.80;99.90;;;;;;5042674;28;20072;-67
2023/12/30 06:45:36;;;;;;;7.60;1.45;;;5.70;99.90;;;;;;5039249;28;20408;-68
2023/12/30 06:48:02;;;;;;;11.38;1.50;;;5.80;99.90;;;;;;5047719;28;20045;-67
2023/12/30 06:50:27;;;;;;;14.25;1.75;;;5.70;99.90;;;;;;5032733;28;20044;-66
2023/12/30 06:52:57;;;;;;;9.73;2.00;;;5.70;99.90;;;;;;5044938;28;20102;-66
2023/12/30 06:55:23;;;;;;;7.13;1.60;;;5.70;99.90;;;;;;5048844;28;20490;-67
2023/12/30 06:57:53;;;;;;;9.20;1.45;;;5.80;99.90;;;;;;5041056;28;20036;-67
2023/12/30 07:00:19;;;;;;;9.77;1.95;;;5.70;99.90;;;;;;5036076;28;20051;-66
2023/12/30 07:02:45;;;;;;;8.60;1.77;;;5.70;99.90;;;;;;5049875;28;20148;-69
2023/12/30 07:05:11;;;;;;;12.05;1.42;;;5.70;99.90;;;;;;5049865;28;20079;-68
2023/12/30 07:07:36;;;;;;;9.52;1.70;;;5.70;99.90;;;;;;5019483;28;20059;-68
2023/12/30 07:10:06;;;;;;;14.60;2.05;;;5.70;99.90;;;;;;5034757;28;20037;-67
2023/12/30 07:12:31;;;;;;;12.85;2.00;;;5.70;99.90;;;;;;5015084;28;20041;-67
2023/12/30 07:15:00;;;;;;;10.75;1.67;;;5.70;99.90;;;;;;5022598;28;20373;-66
2023/12/30 07:17:25;;;;;;;12.05;2.05;;;5.60;99.90;;;;;;5030415;28;20034;-70
2023/12/30 07:19:51;;;;;;;17.25;1.85;;;5.60;99.90;;;;;;5031147;28;20032;-68
2023/12/30 07:22:19;;;;;;;8.50;1.85;;;5.60;99.90;;;;;;5042291;28;20063;-67
2023/12/30 07:24:46;;;;;;;7.85;1.60;;;5.60;99.90;;;;;;5035235;28;20465;-67
2023/12/30 07:27:12;;;;;;;14.65;1.70;;;5.70;99.90;;;;;;5037961;28;20041;-66
2023/12/30 07:29:38;;;;;;;11.18;1.63;;;5.70;99.90;;;;;;5030693;28;20111;-68
2023/12/30 07:32:03;;;;;;;7.90;1.27;;;5.70;99.90;;;;;;5032966;28;20474;-66
2023/12/30 07:34:29;;;;;;;7.75;1.48;;;5.70;99.90;;;;;;5048128;28;20048;-67
2023/12/30 07:36:56;;;;;;;6.75;1.70;;;5.70;99.90;;;;;;5037607;28;20111;-67
2023/12/30 07:39:22;;;;;;;11.02;2.28;;;5.70;99.90;;;;;;5034421;28;20079;-67
2023/12/30 07:41:47;;;;;;;11.27;1.65;;;5.70;99.90;;;;;;5022845;28;20105;-67
2023/12/30 07:44:14;;;;;;;9.15;1.10;;;5.60;99.90;;;;;;5035041;28;20802;-68
2023/12/30 07:46:39;;;;;;;9.40;1.70;;;5.60;99.90;;;;;;5032345;28;20056;-67
2023/12/30 07:49:05;;;;;;;6.65;1.40;;;5.50;99.90;;;;;;5016844;28;20056;-66
2023/12/30 07:51:30;;;;;;;8.98;1.67;;;5.50;99.90;;;;;;5034536;28;20074;-66
2023/12/30 07:53:56;;;;;;;7.60;1.48;;;5.50;99.90;;;;;;5031900;28;20409;-68
2023/12/30 07:56:22;;;;;;;10.00;1.50;;;5.40;99.90;;;;;;5031626;28;20103;-67
2023/12/30 07:58:47;;;;;;;9.57;1.50;;;5.40;99.90;;;;;;5032068;28;20035;-66
2023/12/30 08:01:13;;;;;;;9.18;1.70;;;5.30;99.90;;;;;;5044748;28;20037;-66
2023/12/30 08:03:38;;;;;;;9.63;1.63;;;5.20;99.90;;;;;;5044130;28;20049;-67
2023/12/30 08:06:04;;;;;;;9.23;1.83;;;5.20;99.90;;;;;;5031975;28;20425;-66
2023/12/30 08:08:30;;;;;;;11.20;1.85;;;5.20;99.90;;;;;;5034791;28;20125;-68
2023/12/30 08:10:56;;;;;;;8.15;1.45;;;5.10;99.90;;;;;;5039126;28;20052;-66
2023/12/30 08:13:21;;;;;;;10.80;1.67;;;5.00;99.90;;;;;;5039257;28;20041;-66
2023/12/30 08:15:47;;;;;;;8.05;1.50;;;5.10;99.90;;;;;;5044613;28;20473;-67
2023/12/30 08:18:12;;;;;;;7.50;1.55;;;5.10;99.90;;;;;;5021031;28;20088;-67
2023/12/30 08:20:38;;;;;;;7.80;1.25;;;5.00;99.90;;;;;;5015231;28;20473;-66
2023/12/30 08:23:04;;;;;;;7.30;1.42;;;5.00;99.90;;;;;;5040336;28;20037;-67
2023/12/30 08:25:29;;;;;;;8.82;1.70;;;5.00;99.90;;;;;;5015771;28;20041;-66
2023/12/30 08:27:55;;;;;;;8.45;1.67;;;5.00;99.90;;;;;;5014554;28;20454;-68
2023/12/30 08:30:20;;;;;;;12.20;1.70;;;5.00;99.90;;;;;;5031584;28;20056;-66
2023/12/30 08:32:46;;;;;;;8.57;1.55;;;5.00;99.90;;;;;;5031634;28;20069;-66
2023/12/30 08:35:13;;;;;;;5.75;1.35;;;5.10;99.90;;;;;;5032762;28;20471;-67
2023/12/30 08:37:38;;;;;;;11.27;1.65;;;5.20;99.90;;;;;;5034497;28;20042;-67
2023/12/30 08:40:06;;;;;;;11.40;3.17;;;5.20;99.90;;;;;;5032189;28;20694;-68
2023/12/30 08:42:34;;;;;;;12.07;1.67;;;5.30;99.90;;;;;;5031459;28;20065;-69
2023/12/30 08:45:01;;;;;;;10.52;1.73;;;5.40;99.90;;;;;;5037828;28;20044;-66
2023/12/30 08:47:28;;;;;;;4.53;1.40;;;5.40;99.90;;;;;;5040290;28;20087;-67
2023/12/30 08:49:54;;;;;;;5.80;1.58;;;5.50;99.90;;;;;;5021385;28;20033;-66
2023/12/30 08:52:20;;;;;;;9.65;1.80;;;5.50;99.90;;;;;;5028801;28;20413;-66
2023/12/30 08:54:45;;;;;;;10.32;2.13;;;5.50;99.90;;;;;;5036201;28;20033;-66
2023/12/30 08:57:11;;;;;;;9.18;1.70;;;5.50;99.90;;;;;;5016314;28;20035;-67
2023/12/30 08:59:38;;;;;;;9.75;2.40;;;5.50;99.90;;;;;;5016750;28;20149;-67
2023/12/30 09:02:04;;;;;;;10.10;2.05;;;5.50;99.90;;;;;;5045591;28;20060;-68
2023/12/30 09:04:29;;;;;;;8.73;1.50;;;5.60;99.90;;;;;;5052085;28;20504;-69
2023/12/30 09:06:55;;;;;;;5.07;1.48;;;5.60;99.90;;;;;;5048576;28;20131;-67
2023/12/30 09:09:21;;;;;;;10.55;1.50;;;5.70;99.90;;;;;;5032452;28;20050;-69
2023/12/30 09:11:46;;;;;;;10.52;1.98;;;5.70;99.90;;;;;;5038986;28;20075;-67
2023/12/30 09:14:12;;;;;;;7.15;1.60;;;5.70;99.90;;;;;;5050598;28;20041;-66
2023/12/30 09:16:37;;;;;;;7.43;1.90;;;5.80;99.90;;;;;;5042594;28;20472;-67
2023/12/30 09:19:03;;;;;;;14.95;2.20;;;5.80;99.90;;;;;;5033986;28;20116;-67
2023/12/30 09:21:29;;;;;;;8.73;1.15;;;5.80;99.90;;;;;;5045824;28;20558;-67
2023/12/30 09:23:56;;;;;;;8.70;1.55;;;5.90;99.90;;;;;;5029493;28;20040;-67
2023/12/30 09:26:22;;;;;;;7.15;1.48;;;5.90;99.90;;;;;;5036668;28;20335;-66
2023/12/30 09:28:47;;;;;;;7.53;1.48;;;5.90;99.90;;;;;;5031072;28;20103;-68
2023/12/30 09:31:13;;;;;;;10.45;1.75;;;5.90;99.90;;;;;;5048461;28;20049;-66
2023/12/30 09:33:39;;;;;;;11.38;1.75;;;6.00;99.90;;;;;;5042135;28;20038;-66
2023/12/30 09:36:05;;;;;;;9.45;1.38;;;6.00;99.90;;;;;;5030779;28;20044;-68
2023/12/30 09:38:33;;;;;;;14.30;2.00;;;6.00;99.90;;;;;;5027107;28;20069;-68
2023/12/30 09:40:59;;;;;;;10.10;1.50;;;6.00;99.90;;;;;;5042093;28;20495;-66
2023/12/30 09:43:27;;;;;;;5.68;1.55;;;6.00;99.90;;;;;;5043804;28;20381;-66
2023/12/30 09:45:54;;;;;;;8.27;1.85;;;6.10;99.90;;;;;;5035941;28;20044;-68
2023/12/30 09:48:25;;;;;;;11.10;1.70;;;6.20;99.90;;;;;;5033650;28;20033;-67
2023/12/30 09:50:50;;;;;;;;;;;6.20;99.90;;;;;;5038825;28;20465;-68
2023/12/30 09:53:17;;;;;;;14.52;2.00;;;6.20;99.90;;;;;;5033106;28;19958;-66
2023/12/30 09:55:46;;;;;;;10.88;1.77;;;6.20;99.90;;;;;;5034905;28;20485;-68
2023/12/30 09:58:17;;;;;;;10.80;1.92;;;6.30;99.90;;;;;;5029945;28;20037;-68
2023/12/30 10:00:42;;;;;;;;;;;6.30;99.90;;;;;;5031808;28;20077;-66
2023/12/30 10:03:13;;;;;;;10.15;2.00;;;6.30;99.90;;;;;;5016218;28;19959;-69
2023/12/30 10:05:39;;;;;;;5.22;1.42;;;6.40;99.90;;;;;;5016698;28;20071;-68
2023/12/30 10:08:05;;;;;;;7.30;1.40;;;6.40;99.90;;;;;;5043930;28;20044;-67
2023/12/30 10:10:44;;;;;;;8.52;1.80;;;6.50;99.90;;;;;;5032993;28;20052;-67
2023/12/30 10:13:12;;;;;;;10.77;1.60;;;6.50;99.90;;;;;;5035346;28;20037;-67
2023/12/30 10:15:41;;;;;;;10.23;1.58;;;6.60;99.90;;;;;;5049867;28;20041;-68
2023/12/30 10:18:08;;;;;;;7.78;1.23;;;6.60;99.90;;;;;;5044363;28;20052;-67
2023/12/30 10:20:39;;;;;;;9.27;1.75;;;6.60;99.90;;;;;;5033142;28;20033;-68
2023/12/30 10:23:06;;;;;;;12.70;1.85;;;6.70;99.90;;;;;;5037690;28;20041;-66
2023/12/30 10:25:31;;;;;;;5.65;1.40;;;6.80;99.90;;;;;;5049320;28;20052;-66
2023/12/30 10:27:57;;;;;;;6.70;1.50;;;6.90;99.90;;;;;;5045103;28;20529;-66
2023/12/30 10:30:23;;;;;;;11.18;2.30;;;6.80;99.90;;;;;;5031701;28;20406;-67
2023/12/30 10:32:49;;;;;;;8.40;1.88;;;6.80;99.90;;;;;;5031503;28;20044;-67
2023/12/30 10:35:14;;;;;;;10.88;1.70;;;6.80;99.90;;;;;;5032171;28;20044;-68
2023/12/30 10:37:43;;;;;;;8.27;1.20;;;6.80;99.90;;;;;;5044414;28;20051;-67
2023/12/30 10:40:10;;;;;;;10.57;1.92;;;6.80;99.90;;;;;;5034598;28;20049;-66
2023/12/30 10:42:42;;;;;;;5.38;1.20;;;6.80;99.90;;;;;;5038493;28;20042;-69
2023/12/30 10:45:08;;;;;;;10.88;1.30;;;6.80;99.90;;;;;;5030328;28;20099;-68
2023/12/30 10:47:42;;;;;;;6.13;1.48;;;6.90;99.90;;;;;;5035459;28;20036;-68
2023/12/30 10:50:09;;;;;;;7.28;1.73;;;7.00;99.90;;;;;;5034227;28;20075;-68
2023/12/30 10:52:46;;;;;;;5.07;1.42;;;7.00;99.90;;;;;;5031254;28;20493;-67
2023/12/30 10:55:15;;;;;;;9.80;1.83;;;7.00;99.90;;;;;;5029951;28;20034;-69
2023/12/30 10:57:48;;;;;;;6.95;1.60;;;6.90;99.90;;;;;;5029039;28;20056;-68
2023/12/30 11:00:20;;;;;;;8.13;1.80;;;7.00;99.90;;;;;;5034676;28;20076;-67
2023/12/30 11:02:47;;;;;;;6.95;1.70;;;7.00;99.90;;;;;;5030020;28;20414;-67
2023/12/30 11:05:37;;;;;;;10.77;2.28;;;7.00;99.90;;;;;;5036823;28;20041;-66
2023/12/30 11:08:04;;;;;;;8.73;2.00;;;7.00;99.90;;;;;;5022257;28;20055;-67
2023/12/30 11:10:29;;;;;;;9.10;2.53;;;7.00;99.90;;;;;;5045696;28;20041;-68
2023/12/30 11:12:55;;;;;;;8.45;2.60;;;7.00;99.90;;;;;;5038468;28;20080;-69
2023/12/30 11:15:23;;;;;;;9.63;2.60;;;7.00;99.90;;;;;;5033314;28;20059;-66
2023/12/30 11:17:49;;;;;;;13.90;2.33;;;7.10;99.90;;;;;;5044259;28;20037;-67
2023/12/30 11:20:29;;;;;;;14.10;3.22;;;7.10;99.90;;;;;;5017172;28;20048;-68
2023/12/30 11:23:06;;;;;;;13.48;3.55;;;7.10;99.90;;;;;;5029792;28;20484;-67
2023/12/30 11:25:43;;;;;;;16.13;3.15;;;7.20;99.90;;;;;;5032554;28;20049;-68
2023/12/30 11:28:22;;;;;;;8.82;2.97;;;7.20;99.90;;;;;;5049536;28;20439;-68
2023/12/30 11:30:59;;;;;;;8.95;2.83;;;7.30;99.90;;;;;;5016680;28;20566;-66
2023/12/30 11:33:25;;;;;;;9.27;3.00;;;7.30;99.90;;;;;;5033495;28;20139;-67
2023/12/30 11:35:54;;;;;;;14.27;2.83;;;7.40;99.90;;;;;;5032672;28;20119;-68
2023/12/30 11:38:20;;;;;;;12.13;3.17;;;7.50;99.90;;;;;;5043057;28;20052;-67
2023/12/30 11:40:54;;;;;;;14.75;3.45;;;7.50;99.90;;;;;;5026128;28;20033;-68
2023/12/30 11:43:21;;;;;;;10.95;2.70;;;7.60;99.90;;;;;;5032701;28;20090;-67
2023/12/30 11:45:47;;;;;;;13.18;3.50;;;7.60;99.90;;;;;;5035159;28;20045;-68
2023/12/30 11:48:14;;;;;;;8.25;2.80;;;7.70;99.90;;;;;;5034022;28;20037;-68
2023/12/30 11:50:39;;;;;;;11.38;3.22;;;7.70;99.90;;;;;;5036105;28;20126;-67
2023/12/30 11:53:05;;;;;;;9.98;2.90;;;7.70;99.90;;;;;;5045525;28;20120;-69
2023/12/30 11:55:31;;;;;;;12.52;3.00;;;7.70;99.90;;;;;;5019558;28;20071;-67
2023/12/30 11:57:57;;;;;;;13.35;2.67;;;7.70;99.90;;;;;;5032158;28;20034;-67
2023/12/30 12:00:26;;;;;;;10.02;2.47;;;7.60;99.90;;;;;;5036377;28;20044;-67
2023/12/30 12:02:52;;;;;;;10.00;3.13;;;7.70;99.90;;;;;;5029466;28;20037;-69
2023/12/30 12:05:18;;;;;;;10.48;3.15;;;7.70;99.90;;;;;;5034648;28;20033;-69
2023/12/30 12:07:43;;;;;;;12.93;2.63;;;7.60;99.90;;;;;;5029321;28;20052;-69
2023/12/30 12:10:10;;;;;;;9.63;2.90;;;7.60;99.90;;;;;;5049609;28;20036;-67
2023/12/30 12:12:42;;;;;;;10.00;2.33;;;7.50;99.90;;;;;;5035758;28;20056;-68
2023/12/30 12:15:08;;;;;;;14.48;3.53;;;7.50;99.90;;;;;;5030751;28;20117;-68
2023/12/30 12:17:35;;;;;;;11.23;2.92;;;7.50;99.90;;;;;;5030576;28;20413;-67
2023/12/30 12:20:01;;;;;;;10.00;3.05;;;7.50;99.90;;;;;;5039597;28;20109;-66
2023/12/30 12:22:27;;;;;;;11.00;3.00;;;7.60;99.90;;;;;;5030974;28;20045;-68
2023/12/30 12:24:52;;;;;;;14.02;3.00;;;7.60;99.90;;;;;;5044313;28;20044;-67
2023/12/30 12:27:22;;;;;;;13.55;3.58;;;7.60;99.90;;;;;;5024760;28;20132;-67
2023/12/30 12:29:54;;;;;;;12.35;3.15;;;7.60;99.90;;;;;;5042513;28;20449;-67
2023/12/30 12:32:21;;;;;;;11.43;3.13;;;7.70;99.90;;;;;;5039112;28;20044;-68
2023/12/30 12:34:47;;;;;;;12.50;3.63;;;7.70;99.90;;;;;;5041388;28;20133;-68
2023/12/30 12:37:17;;;;;;;10.30;2.90;;;7.80;99.90;;;;;;5032314;28;20050;-67
2023/12/30 12:39:46;;;;;;;13.73;2.90;;;7.80;99.90;;;;;;5035643;28;20040;-67
2023/12/30 12:42:13;;;;;;;9.57;2.50;;;7.90;99.90;;;;;;5037498;28;20410;-67
2023/12/30 12:44:39;;;;;;;10.30;2.55;;;8.00;99.90;;;;;;5030130;28;20127;-68
2023/12/30 12:47:09;;;;;;;9.05;2.50;;;8.00;99.90;;;;;;5041291;28;20052;-67
2023/12/30 12:49:35;;;;;;;7.97;2.53;;;8.00;99.90;;;;;;5039216;28;20045;-68
2023/12/30 12:52:02;;;;;;;15.00;3.33;;;8.10;99.90;;;;;;5038400;28;20040;-67